createdAt,value
2022-08-30T00:01:14.091Z,2.20
2022-08-30T00:03:46.738Z,2.80
2022-08-30T00:06:15.927Z,2.47
2022-08-30T00:08:44.825Z,3.28
2022-08-30T00:11:14.635Z,2.72
2022-08-30T00:13:44.673Z,2.80
2022-08-30T00:16:12.699Z,2.75
2022-08-30T00:18:40.894Z,3.20
2022-08-30T00:21:09.088Z,2.88
2022-08-30T00:23:36.458Z,2.80
2022-08-30T00:26:03.965Z,2.38
2022-08-30T00:28:32.061Z,2.25
2022-08-30T00:31:00.230Z,2.47
2022-08-30T00:33:27.117Z,2.70
2022-08-30T00:35:54.008Z,2.65
2022-08-30T00:38:21.927Z,2.55
2022-08-30T00:40:49.773Z,2.35
2022-08-30T00:43:25.772Z,2.28
2022-08-30T00:45:55.682Z,2.85
2022-08-30T00:48:23.445Z,2.63
2022-08-30T00:50:54.869Z,2.30
2022-08-30T00:53:25.670Z,2.22
2022-08-30T00:55:54.618Z,2.60
2022-08-30T00:58:28.513Z,2.60
2022-08-30T01:00:58.622Z,2.95
2022-08-30T01:03:26.622Z,2.80
2022-08-30T01:05:54.111Z,2.35
2022-08-30T01:08:22.340Z,3.10
2022-08-30T01:16:10.446Z,3.25
2022-08-30T01:18:39.640Z,2.72
2022-08-30T01:21:34.553Z,3.00
2022-08-30T01:24:02.921Z,2.45
2022-08-30T01:26:30.789Z,2.95
2022-08-30T01:29:03.955Z,2.63
2022-08-30T01:31:30.964Z,2.53
2022-08-30T01:33:57.766Z,2.70
2022-08-30T01:36:25.153Z,3.20
2022-08-30T01:38:55.708Z,2.55
2022-08-30T01:41:29.691Z,2.80
2022-08-30T01:43:59.103Z,2.72
2022-08-30T01:46:29.731Z,2.70
2022-08-30T01:48:58.761Z,2.58
2022-08-30T01:51:27.881Z,3.10
2022-08-30T01:53:55.276Z,3.00
2022-08-30T01:56:23.317Z,2.92
2022-08-30T01:58:51.389Z,2.60
2022-08-30T02:01:20.460Z,3.20
2022-08-30T02:03:48.456Z,2.40
2022-08-30T02:06:19.186Z,2.95
2022-08-30T02:08:46.704Z,3.03
2022-08-30T02:11:14.638Z,2.83
2022-08-30T02:13:43.141Z,3.00
2022-08-30T02:16:14.148Z,3.03
2022-08-30T02:18:41.469Z,3.10
2022-08-30T02:21:09.813Z,3.30
2022-08-30T02:23:37.400Z,3.13
2022-08-30T02:26:05.447Z,2.70
2022-08-30T02:28:34.293Z,2.92
2022-08-30T02:31:02.201Z,2.25
2022-08-30T02:33:29.228Z,2.40
2022-08-30T02:35:56.481Z,3.00
2022-08-30T02:38:24.241Z,3.22
2022-08-30T02:40:51.932Z,3.50
2022-08-30T02:43:19.454Z,2.90
2022-08-30T02:45:46.911Z,3.35
2022-08-30T02:48:13.977Z,3.70
2022-08-30T02:50:45.602Z,2.78
2022-08-30T02:53:16.134Z,3.72
2022-08-30T02:55:43.528Z,3.22
2022-08-30T02:58:11.036Z,2.70
2022-08-30T03:00:38.793Z,3.45
2022-08-30T03:03:07.408Z,3.33
2022-08-30T03:05:35.104Z,3.33
2022-08-30T03:08:04.784Z,2.80
2022-08-30T03:10:31.944Z,3.70
2022-08-30T03:12:59.158Z,3.85
2022-08-30T03:15:26.484Z,3.45
2022-08-30T03:17:54.881Z,2.67
2022-08-30T03:20:23.139Z,2.75
2022-08-30T03:22:50.111Z,3.55
2022-08-30T03:25:17.068Z,3.15
2022-08-30T03:27:44.054Z,3.20
2022-08-30T03:30:11.473Z,3.03
2022-08-30T03:32:39.436Z,3.00
2022-08-30T03:35:07.118Z,3.70
2022-08-30T03:37:35.230Z,2.70
2022-08-30T03:40:04.073Z,2.92
2022-08-30T03:42:30.940Z,3.08
2022-08-30T03:44:58.660Z,3.17
2022-08-30T03:47:25.958Z,2.83
2022-08-30T03:49:52.811Z,3.35
2022-08-30T03:52:19.576Z,3.13
2022-08-30T03:54:46.405Z,3.15
2022-08-30T03:57:19.685Z,2.47
2022-08-30T03:59:47.189Z,3.60
2022-08-30T04:02:14.133Z,3.30
2022-08-30T04:04:40.896Z,3.10
2022-08-30T04:07:08.062Z,3.45
2022-08-30T04:09:35.370Z,2.75
2022-08-30T04:12:02.426Z,3.15
2022-08-30T04:14:29.183Z,3.25
2022-08-30T04:16:55.931Z,3.00
2022-08-30T04:19:23.099Z,3.83
2022-08-30T04:21:50.081Z,3.28
2022-08-30T04:29:47.737Z,3.70
2022-08-30T04:32:16.227Z,3.75
2022-08-30T04:34:43.536Z,3.72
2022-08-30T04:37:10.321Z,3.70
2022-08-30T04:39:37.893Z,3.60
2022-08-30T04:42:05.184Z,3.20
2022-08-30T04:47:09.710Z,3.75
2022-08-30T04:49:36.720Z,4.40
2022-08-30T04:52:06.381Z,3.05
2022-08-30T04:54:33.242Z,3.63
2022-08-30T04:57:00.890Z,3.63
2022-08-30T04:59:28.766Z,3.65
2022-08-30T05:10:01.556Z,3.08
2022-08-30T05:12:28.921Z,3.35
2022-08-30T05:14:58.515Z,2.85
2022-08-30T05:17:26.259Z,3.03
2022-08-30T05:19:53.908Z,3.83
2022-08-30T05:38:54.635Z,3.20
2022-08-30T05:41:27.165Z,4.10
2022-08-30T05:50:10.991Z,3.47
2022-08-30T05:55:37.521Z,3.47
2022-08-30T06:01:34.994Z,3.05
2022-08-30T06:04:04.408Z,3.35
2022-08-30T06:06:35.561Z,3.58
2022-08-30T06:09:05.143Z,3.47
2022-08-30T06:14:10.042Z,3.17
2022-08-30T06:16:39.493Z,3.33
2022-08-30T06:19:12.868Z,4.10
2022-08-30T06:21:40.725Z,3.55
2022-08-30T06:27:06.491Z,3.80
2022-08-30T06:29:33.629Z,3.22
2022-08-30T06:32:00.933Z,3.00
2022-08-30T06:34:28.360Z,2.83
2022-08-30T06:36:55.798Z,2.47
2022-08-30T06:39:23.022Z,3.00
2022-08-30T06:41:50.733Z,2.75
2022-08-30T06:44:17.904Z,2.83
2022-08-30T06:46:49.743Z,2.60
2022-08-30T06:51:54.142Z,2.38
2022-08-30T06:54:21.827Z,2.60
2022-08-30T07:05:05.859Z,2.55
2022-08-30T07:12:53.819Z,1.92
2022-08-30T07:15:23.203Z,2.13
2022-08-30T07:18:09.700Z,2.15
2022-08-30T07:30:07.394Z,2.05
2022-08-30T07:35:12.430Z,1.92
2022-08-30T07:37:40.223Z,1.77
2022-08-30T07:49:46.682Z,1.65
2022-08-30T07:55:03.273Z,2.20
2022-08-30T08:13:55.864Z,1.73
2022-08-30T08:16:32.180Z,2.00
2022-08-30T08:18:59.655Z,1.90
2022-08-30T08:32:18.143Z,2.38
2022-08-30T08:34:45.552Z,1.90
2022-08-30T08:37:12.726Z,2.22
2022-08-30T08:39:39.780Z,2.30
2022-08-30T08:42:29.906Z,1.80
2022-08-30T08:45:00.345Z,1.98
2022-08-30T08:47:31.234Z,2.10
2022-08-30T08:50:03.195Z,1.98
2022-08-30T08:53:25.016Z,1.92
2022-08-30T08:55:58.244Z,1.70
2022-08-30T08:58:41.716Z,2.20
2022-08-30T09:01:10.780Z,1.88
2022-08-30T09:03:38.026Z,2.38
2022-08-30T09:06:32.619Z,1.83
2022-08-30T09:08:59.784Z,1.60
2022-08-30T09:17:10.297Z,1.67
2022-08-30T09:19:54.441Z,2.05
2022-08-30T09:22:26.675Z,1.83
2022-08-30T09:25:00.889Z,1.75
2022-08-30T09:27:32.881Z,1.95
2022-08-30T09:32:41.014Z,1.90
2022-08-30T09:35:18.301Z,1.80
2022-08-30T09:38:04.423Z,1.80
2022-08-30T09:40:39.690Z,1.85
2022-08-30T09:48:38.656Z,2.25
2022-08-30T09:54:25.462Z,1.80
2022-08-30T09:57:12.975Z,1.70
2022-08-30T10:00:02.658Z,1.90
2022-08-30T10:03:02.494Z,1.50
2022-08-30T10:05:56.824Z,1.58
2022-08-30T10:08:36.521Z,1.88
2022-08-30T10:11:31.751Z,1.42
2022-08-30T10:18:25.752Z,1.60
2022-08-30T10:23:51.715Z,1.83
2022-08-30T10:26:48.808Z,1.65
2022-08-30T10:29:25.711Z,1.58
2022-08-30T10:34:49.096Z,1.58
2022-08-30T10:37:21.956Z,1.67
2022-08-30T10:40:38.591Z,1.73
2022-08-30T10:43:13.836Z,1.38
2022-08-30T10:45:44.961Z,1.40
2022-08-30T10:48:28.977Z,1.30
2022-08-30T10:51:02.656Z,1.48
2022-08-30T10:56:34.122Z,1.33
2022-08-30T10:59:04.083Z,1.65
2022-08-30T11:01:47.185Z,1.40
2022-08-30T11:09:47.428Z,1.30
2022-08-30T11:12:51.961Z,1.65
2022-08-30T11:15:26.443Z,1.50
2022-08-30T11:18:02.385Z,1.40
2022-08-30T11:20:50.133Z,1.58
2022-08-30T11:23:34.123Z,1.30
2022-08-30T11:26:20.262Z,1.30
2022-08-30T11:28:48.294Z,1.15
2022-08-30T11:31:18.474Z,1.08
2022-08-30T11:33:48.434Z,1.02
2022-08-30T11:36:37.894Z,1.05
2022-08-30T11:39:06.958Z,0.93
2022-08-30T11:41:34.651Z,0.90
2022-08-30T11:44:14.611Z,0.80
2022-08-30T11:46:42.630Z,0.90
2022-08-30T11:49:15.514Z,0.95
2022-08-30T11:52:23.880Z,1.00
2022-08-30T11:55:17.497Z,0.70
2022-08-30T11:57:52.825Z,0.80
2022-08-30T12:00:39.692Z,0.82
2022-08-30T12:03:30.222Z,0.80
2022-08-30T12:06:01.429Z,0.80
2022-08-30T12:08:28.595Z,0.90
2022-08-30T12:10:58.990Z,0.80
2022-08-30T12:13:35.296Z,0.70
2022-08-30T12:16:09.381Z,0.85
2022-08-30T12:18:39.446Z,1.00
2022-08-30T12:21:22.514Z,0.70
2022-08-30T12:24:04.533Z,0.70
2022-08-30T12:26:36.136Z,0.80
2022-08-30T12:29:12.943Z,0.77
2022-08-30T12:31:55.923Z,0.80
2022-08-30T12:34:50.340Z,0.80
2022-08-30T12:37:30.149Z,0.80
2022-08-30T12:40:15.281Z,0.60
2022-08-30T12:42:52.333Z,0.68
2022-08-30T12:45:21.800Z,0.80
2022-08-30T12:47:51.687Z,0.60
2022-08-30T12:50:23.293Z,0.50
2022-08-30T12:53:01.599Z,0.93
2022-08-30T12:55:32.820Z,0.60
2022-08-30T12:58:04.509Z,0.60
2022-08-30T13:00:40.553Z,0.60
2022-08-30T13:03:36.816Z,0.85
2022-08-30T13:06:07.405Z,0.73
2022-08-30T13:08:37.474Z,0.80
2022-08-30T13:11:08.516Z,0.80
2022-08-30T13:13:37.956Z,0.80
2022-08-30T13:16:26.501Z,0.90
2022-08-30T13:19:22.591Z,0.77
2022-08-30T13:21:55.784Z,0.80
2022-08-30T13:24:25.726Z,0.70
2022-08-30T13:27:01.677Z,0.80
2022-08-30T13:29:29.326Z,0.70
2022-08-30T13:31:56.869Z,0.82
2022-08-30T13:34:23.745Z,0.73
2022-08-30T13:36:56.587Z,0.90
2022-08-30T13:39:23.692Z,0.93
2022-08-30T13:41:51.919Z,1.00
2022-08-30T13:44:19.374Z,1.25
2022-08-30T13:46:54.121Z,1.10
2022-08-30T13:49:48.123Z,0.85
2022-08-30T13:52:21.778Z,1.10
2022-08-30T13:54:54.139Z,0.90
2022-08-30T14:00:17.581Z,0.82
2022-08-30T14:02:51.630Z,0.75
2022-08-30T14:10:59.008Z,0.80
2022-08-30T14:13:29.139Z,0.80
2022-08-30T14:18:46.529Z,0.82
2022-08-30T14:21:13.995Z,0.95
2022-08-30T14:23:40.834Z,1.20
2022-08-30T14:26:17.236Z,0.70
2022-08-30T14:28:44.943Z,0.75
2022-08-30T14:31:12.783Z,0.70
2022-08-30T14:33:40.169Z,1.17
2022-08-30T14:36:12.499Z,0.65
2022-08-30T14:38:43.589Z,1.10
2022-08-30T14:41:11.031Z,0.98
2022-08-30T14:43:40.655Z,1.05
2022-08-30T14:46:08.979Z,0.82
2022-08-30T14:48:38.586Z,1.00
2022-08-30T14:51:17.428Z,0.90
2022-08-30T14:53:45.736Z,1.02
2022-08-30T14:56:16.384Z,1.13
2022-08-30T14:58:43.328Z,1.60
2022-08-30T15:01:12.444Z,1.27
2022-08-30T15:03:40.970Z,1.20
2022-08-30T15:06:09.694Z,1.27
2022-08-30T15:08:38.185Z,1.10
2022-08-30T15:11:12.061Z,1.45
2022-08-30T15:13:40.721Z,1.23
2022-08-30T15:16:12.310Z,1.05
2022-08-30T15:18:39.363Z,1.00
2022-08-30T15:21:08.903Z,1.00
2022-08-30T15:23:36.849Z,1.20
2022-08-30T15:26:04.340Z,1.20
2022-08-30T15:28:31.622Z,1.10
2022-08-30T15:30:58.789Z,1.10
2022-08-30T15:33:25.869Z,1.77
2022-08-30T15:35:52.965Z,1.90
2022-08-30T15:38:21.865Z,1.42
2022-08-30T15:40:50.060Z,1.40
2022-08-30T15:43:17.543Z,1.73
2022-08-30T15:45:44.592Z,1.40
2022-08-30T15:48:12.342Z,1.70
2022-08-30T15:50:39.341Z,1.48
2022-08-30T15:53:07.621Z,1.67
2022-08-30T15:55:34.668Z,1.58
2022-08-30T15:58:01.800Z,1.65
2022-08-30T16:00:29.220Z,1.70
2022-08-30T16:02:56.118Z,1.98
2022-08-30T16:05:23.744Z,1.48
2022-08-30T16:07:52.378Z,1.50
2022-08-30T16:10:19.539Z,1.58
2022-08-30T16:12:46.761Z,1.85
2022-08-30T16:15:14.412Z,1.52
2022-08-30T16:17:41.370Z,1.52
2022-08-30T16:20:09.527Z,1.83
2022-08-30T16:22:38.851Z,2.10
2022-08-30T16:25:12.596Z,1.50
2022-08-30T16:27:43.037Z,1.58
2022-08-30T16:30:11.974Z,1.73
2022-08-30T16:32:39.783Z,1.67
2022-08-30T16:35:07.936Z,1.83
2022-08-30T16:37:35.860Z,1.83
2022-08-30T16:40:04.677Z,2.08
2022-08-30T16:42:33.675Z,2.25
2022-08-30T16:45:02.494Z,2.78
2022-08-30T16:47:37.349Z,2.40
2022-08-30T16:50:05.069Z,1.80
2022-08-30T16:52:32.260Z,2.30
2022-08-30T16:54:59.412Z,2.22
2022-08-30T16:57:26.548Z,1.90
2022-08-30T16:59:55.382Z,2.30
2022-08-30T17:02:24.010Z,2.15
2022-08-30T17:04:53.189Z,2.65
2022-08-30T17:09:57.516Z,2.58
2022-08-30T17:12:24.952Z,2.63
2022-08-30T17:17:29.248Z,2.75
2022-08-30T17:19:56.856Z,2.78
2022-08-30T17:22:23.763Z,2.85
2022-08-30T17:24:53.082Z,2.58
2022-08-30T17:27:20.048Z,2.72
2022-08-30T17:29:48.050Z,2.85
2022-08-30T17:32:14.796Z,2.67
2022-08-30T17:34:41.975Z,3.25
2022-08-30T17:37:09.074Z,4.30
2022-08-30T17:39:36.828Z,4.80
2022-08-30T17:42:04.599Z,4.15
2022-08-30T17:44:34.332Z,4.35
2022-08-30T17:47:01.580Z,3.55
2022-08-30T17:49:29.334Z,5.00
2022-08-30T17:51:58.817Z,3.22
2022-08-30T17:54:27.463Z,4.10
2022-08-30T17:56:54.847Z,4.57
2022-08-30T17:59:24.797Z,4.07
2022-08-30T18:01:53.314Z,4.45
2022-08-30T18:04:20.536Z,5.63
2022-08-30T18:06:48.085Z,4.05
2022-08-30T18:09:16.958Z,4.57
2022-08-30T18:11:43.752Z,4.63
2022-08-30T18:14:12.736Z,3.92
2022-08-30T18:16:47.468Z,3.70
2022-08-30T18:19:20.611Z,3.97
2022-08-30T18:21:47.706Z,4.32
2022-08-30T18:24:16.654Z,4.78
2022-08-30T18:26:43.512Z,5.03
2022-08-30T18:29:10.629Z,4.10
2022-08-30T18:31:37.712Z,5.22
2022-08-30T18:34:04.688Z,5.60
2022-08-30T18:36:34.127Z,5.10
2022-08-30T18:39:01.217Z,5.32
2022-08-30T18:41:28.249Z,6.38
2022-08-30T18:44:11.259Z,4.85
2022-08-30T18:46:51.229Z,4.80
2022-08-30T18:49:32.191Z,19.05
2022-08-30T18:51:59.537Z,21.42
2022-08-30T18:54:26.387Z,23.80
2022-08-30T18:56:53.168Z,29.10
2022-08-30T18:59:22.066Z,23.85
2022-08-30T19:01:49.840Z,23.17
2022-08-30T19:04:29.497Z,23.10
2022-08-30T19:07:02.803Z,21.60
2022-08-30T19:09:29.630Z,18.05
2022-08-30T19:11:56.984Z,19.70
2022-08-30T19:14:24.013Z,18.77
2022-08-30T19:16:56.314Z,18.55
2022-08-30T19:19:23.892Z,15.73
2022-08-30T19:21:51.719Z,14.07
2022-08-30T19:24:19.492Z,12.30
2022-08-30T19:26:47.169Z,9.82
2022-08-30T19:29:15.990Z,10.15
2022-08-30T19:31:43.825Z,12.45
2022-08-30T19:34:11.331Z,10.90
2022-08-30T19:36:38.211Z,12.43
2022-08-30T19:39:06.753Z,11.73
2022-08-30T19:41:34.016Z,9.65
2022-08-30T19:44:03.012Z,9.80
2022-08-30T19:46:30.893Z,9.68
2022-08-30T19:49:01.065Z,8.93
2022-08-30T19:51:28.764Z,7.63
2022-08-30T19:53:58.987Z,5.82
2022-08-30T19:56:26.529Z,5.78
2022-08-30T19:58:53.360Z,5.53
2022-08-30T20:01:33.264Z,6.13
2022-08-30T20:04:04.073Z,6.20
2022-08-30T20:06:32.309Z,5.53
2022-08-30T20:09:00.338Z,5.28
2022-08-30T20:11:27.977Z,5.18
2022-08-30T20:13:54.757Z,5.53
2022-08-30T20:16:21.694Z,4.70
2022-08-30T20:18:59.849Z,4.63
2022-08-30T20:21:27.085Z,3.92
2022-08-30T20:23:58.033Z,4.38
2022-08-30T20:26:30.026Z,4.57
2022-08-30T20:29:01.896Z,4.18
2022-08-30T20:31:29.144Z,4.22
2022-08-30T20:33:56.455Z,4.28
2022-08-30T20:36:23.565Z,4.03
2022-08-30T20:38:51.126Z,4.60
2022-08-30T20:41:30.041Z,5.03
2022-08-30T20:44:06.050Z,5.35
2022-08-30T20:46:44.922Z,5.47
2022-08-30T20:49:22.026Z,5.97
2022-08-30T20:51:56.601Z,5.40
2022-08-30T20:54:28.064Z,6.95
2022-08-30T20:56:59.006Z,4.45
2022-08-30T20:59:30.900Z,4.30
2022-08-30T21:01:59.647Z,4.35
2022-08-30T21:04:27.272Z,4.10
2022-08-30T21:06:54.093Z,4.32
2022-08-30T21:09:20.901Z,3.47
2022-08-30T21:11:47.980Z,3.70
2022-08-30T21:14:14.917Z,3.45
2022-08-30T21:16:41.859Z,3.50
2022-08-30T21:19:09.229Z,3.40
2022-08-30T21:21:36.464Z,3.38
2022-08-30T21:24:10.378Z,3.28
2022-08-30T21:26:39.900Z,3.30
2022-08-30T21:29:07.953Z,2.75
2022-08-30T21:31:37.860Z,2.83
2022-08-30T21:34:05.214Z,2.80
2022-08-30T21:36:47.296Z,3.03
2022-08-30T21:39:26.297Z,3.17
2022-08-30T21:41:56.950Z,3.10
2022-08-30T21:44:26.824Z,2.60
2022-08-30T21:46:54.211Z,2.83
2022-08-30T21:49:23.355Z,3.00
2022-08-30T21:51:51.915Z,2.33
2022-08-30T21:54:19.303Z,3.17
2022-08-30T21:56:48.487Z,2.80
2022-08-30T21:59:15.840Z,2.55
2022-08-30T22:01:43.548Z,2.90
2022-08-30T22:04:12.100Z,2.60
2022-08-30T22:06:41.674Z,2.65
2022-08-30T22:09:13.638Z,2.85
2022-08-30T22:11:42.717Z,2.70
2022-08-30T22:14:10.505Z,3.00
2022-08-30T22:16:40.424Z,2.67
2022-08-30T22:19:07.725Z,2.83
2022-08-30T22:21:37.527Z,2.80
2022-08-30T22:24:05.080Z,2.80
2022-08-30T22:26:33.283Z,2.67
2022-08-30T22:29:00.384Z,2.50
2022-08-30T22:31:27.348Z,2.70
2022-08-30T22:33:55.024Z,2.70
2022-08-30T22:36:32.839Z,2.97
2022-08-30T22:39:01.414Z,2.58
2022-08-30T22:41:31.463Z,2.65
2022-08-30T22:43:58.466Z,2.40
2022-08-30T22:46:33.647Z,3.67
2022-08-30T22:49:03.719Z,2.85
2022-08-30T22:51:30.619Z,2.35
2022-08-30T22:53:57.737Z,2.83
2022-08-30T22:56:26.061Z,2.78
2022-08-30T22:58:55.085Z,2.97
2022-08-30T23:01:31.902Z,2.78
2022-08-30T23:04:01.218Z,3.05
2022-08-30T23:06:29.463Z,2.70
2022-08-30T23:08:56.578Z,2.45
2022-08-30T23:11:23.608Z,3.00
2022-08-30T23:13:51.743Z,2.88
2022-08-30T23:16:20.224Z,2.72
2022-08-30T23:18:47.746Z,2.40
2022-08-30T23:21:24.713Z,2.83
2022-08-30T23:24:12.501Z,2.35
2022-08-30T23:26:59.880Z,2.70
2022-08-30T23:29:45.805Z,2.80
2022-08-30T23:32:31.869Z,2.70
2022-08-30T23:35:17.747Z,2.70
2022-08-30T23:38:05.352Z,2.85
2022-08-30T23:40:50.836Z,2.47
2022-08-30T23:43:36.462Z,2.78
2022-08-30T23:46:22.480Z,2.40
2022-08-30T23:49:08.911Z,2.92
2022-08-30T23:51:55.993Z,2.50
2022-08-30T23:54:42.639Z,2.70
2022-08-30T23:57:28.128Z,2.95
